Latest Weather Observations for White Cliffs AWS

IDN60801

Issued at 11:22 pm EST Monday 24 June 2019 (issued every 10 minutes, with the page automatically refreshed every 10 minutes)

About weather observations | Map of weather stations | Latest weather observations for NSW | Other Formats
Station Details ID: 046129 Name: WHITE CLIFFS AWS Lat: -30.85 Lon: 143.07 Height: 158.0 m
Data from the previous 72 hours. | See also: Recent months at White Cliffs AWS
Date/Time
EST
Temp
°C
App
Temp
°C
Dew
Point
°C
Rel
Hum
%
Delta-T
°C
Wind Press
QNH
hPa
Press
MSL
hPa
Rain since
9am
mm
Dir  Spd
km/h
Gust
km/h
Spd
kts
Gust
kts
24/11:00pm 8.9 5.0 1.1 58 3.2 S 11 15 6 8 1029.8 1029.9 0.0
24/10:30pm 9.8 5.6 1.5 56 3.5 S 13 15 7 8 1029.8 1029.9 0.0
24/10:00pm 10.3 5.3 1.4 54 3.7 S 17 19 9 10 1029.4 1029.6 0.0
24/09:30pm 11.0 6.8 1.5 52 4.0 S 13 15 7 8 1029.5 1029.7 0.0
24/09:00pm 11.6 7.0 1.8 51 4.2 SSE 15 19 8 10 1029.3 1029.5 0.0
24/08:30pm 11.8 6.9 1.7 50 4.3 SSE 17 20 9 11 1029.0 1029.1 0.0
24/08:00pm 12.0 7.8 1.6 49 4.4 SSE 13 15 7 8 1029.3 1029.5 0.0
24/07:30pm 12.1 7.1 1.4 48 4.6 SSE 17 20 9 11 1028.7 1028.8 0.0
24/07:00pm 12.3 7.7 1.6 48 4.6 SSE 15 17 8 9 1028.8 1028.9 0.0
24/06:30pm 12.8 8.1 1.2 45 5.0 SSE 15 19 8 10 1028.7 1028.8 0.0
24/06:00pm 13.0 9.0 0.7 43 5.2 SSE 11 13 6 7 1028.4 1028.5 0.0
24/05:30pm 13.9 9.9 0.5 40 5.7 SSE 11 13 6 7 1028.3 1028.4 0.0
24/05:00pm 14.6 10.2 0.5 38 6.0 SE 13 17 7 9 1027.9 1028.0 0.0
24/04:30pm 14.9 10.5 0.4 37 6.2 ESE 13 15 7 8 1027.9 1028.0 0.0
24/04:00pm 15.3 10.8 -0.1 35 6.5 ESE 13 20 7 11 1027.6 1027.7 0.0
24/03:30pm 15.3 10.8 -0.1 35 6.6 SE 13 19 7 10 1027.4 1027.5 0.0
24/03:00pm 15.5 11.9 0.5 36 6.4 ESE 9 15 5 8 1027.5 1027.6 0.0
24/02:30pm 15.3 12.0 0.3 36 6.4 ESE 7 13 4 7 1027.7 1027.8 0.0
24/02:00pm 14.9 11.4 1.1 39 6.0 SE 9 13 5 7 1027.8 1027.9 0.0
24/01:30pm 14.2 10.6 0.8 40 5.8 ESE 9 15 5 8 1028.3 1028.4 0.0
24/01:00pm 13.9 9.8 2.2 45 5.1 SSE 13 24 7 13 1028.9 1029.0 0.0
24/12:30pm 13.2 8.7 2.1 47 4.9 SSE 15 19 8 10 1029.3 1029.5 0.0
24/12:00pm 12.0 7.8 1.6 49 4.4 S 13 17 7 9 1029.5 1029.7 0.0
24/11:30am 11.3 7.5 1.5 51 4.2 SSW 11 17 6 9 1030.1 1030.2 0.0
24/11:00am 10.5 7.1 1.6 54 3.7 ESE 9 13 5 7 1030.3 1030.4 0.0
24/10:30am 8.7 5.1 0.7 57 3.3 SSW 9 13 5 7 1030.5 1030.6 0.0
24/10:00am 7.9 4.0 0.9 61 2.8 S 11 15 6 8 1030.6 1030.7 0.0
24/09:30am 5.8 1.8 0.2 67 2.2 SSW 11 13 6 7 1030.5 1030.6 0.0
24/09:00am 4.6 0.5 -0.2 71 1.8 SSW 11 13 6 7 1030.3 1030.4 0.0
24/08:30am 3.5 -1.1 -0.7 74 1.6 SSW 13 17 7 9 1030.0 1030.1 0.0
24/08:00am 2.6 -2.4 -1.2 76 1.4 S 15 17 8 9 1030.1 1030.2 0.0
24/07:30am 1.9 -2.8 -1.7 77 1.3 SSW 13 17 7 9 1030.1 1030.2 0.0
24/07:00am 2.3 -2.7 -1.3 77 1.3 S 15 17 8 9 1029.4 1029.6 0.0
24/06:30am 1.5 -3.2 -2.1 77 1.3 SSW 13 15 7 8 1029.0 1029.1 0.0
24/06:00am 1.9 -2.8 -2.1 75 1.4 SSW 13 15 7 8 1028.5 1028.6 0.0
24/05:30am 2.3 -2.4 -1.7 75 1.4 S 13 15 7 8 1028.6 1028.7 0.0
24/05:00am 2.3 -2.8 -1.8 74 1.4 S 15 17 8 9 1028.3 1028.4 0.0
24/04:30am 2.1 -2.6 -2.0 74 1.4 SW 13 15 7 8 1028.1 1028.2 0.0
24/04:00am 2.0 -2.0 -2.3 73 1.5 W 9 11 5 6 1028.3 1028.4 0.0
24/03:30am 3.9 -0.4 -1.5 68 2.0 ESE 11 15 6 8 1027.8 1027.9 0.0
24/03:00am 4.8 0.6 -1.2 65 2.2 ESE 11 15 6 8 1027.8 1027.9 0.0
24/02:30am 5.7 1.5 -0.8 63 2.5 SSE 11 13 6 7 1028.0 1028.1 0.0
24/02:00am 6.0 0.7 -0.9 61 2.6 S 17 20 9 11 1028.1 1028.2 0.0
24/01:30am 6.1 0.2 -0.8 61 2.6 SSE 20 24 11 13 1027.8 1027.9 0.0
24/01:00am 6.4 0.5 -0.8 60 2.7 SSE 20 26 11 14 1028.0 1028.1 0.0
24/12:30am 6.1 0.8 -0.8 61 2.6 SSE 17 22 9 12 1028.1 1028.2 0.0
24/12:00am 6.7 0.8 -0.7 59 2.8 SSE 20 24 11 13 1028.0 1028.1 0.0
 
Date/Time
EST
Temp
°C
App
Temp
°C
Dew
Point
°C
Rel
Hum
%
Delta-T
°C
Wind Press
QNH
hPa
Press
MSL
hPa
Rain since
9am
mm
Dir  Spd
km/h
Gust
km/h
Spd
kts
Gust
kts
23/11:30pm 6.9 1.0 -0.8 58 3.0 SSE 20 26 11 14 1028.0 1028.1 0.0
23/11:00pm 7.0 1.2 -0.4 59 2.9 SSE 20 24 11 13 1027.9 1028.0 0.0
23/10:30pm 6.6 1.4 -0.1 62 2.6 S 17 20 9 11 1028.2 1028.3 0.0
23/10:00pm 6.7 1.4 -0.3 61 2.7 S 17 20 9 11 1028.2 1028.3 0.0
23/09:30pm 6.4 1.1 -0.8 60 2.8 S 17 20 9 11 1028.2 1028.3 0.0
23/09:00pm 6.0 1.0 -1.4 59 2.8 S 15 15 8 8 1028.2 1028.3 0.0
23/08:30pm 6.5 1.8 -1.6 56 3.0 SSW 13 15 7 8 1028.1 1028.2 0.0
23/08:00pm 8.2 2.9 -0.8 53 3.5 S 17 19 9 10 1027.7 1027.8 0.0
23/07:30pm 8.5 3.5 -1.0 51 3.7 S 15 17 8 9 1027.4 1027.5 0.0
23/07:00pm 8.8 3.8 -1.0 50 3.8 SSE 15 19 8 10 1027.0 1027.1 0.0
23/06:30pm 9.4 4.4 -1.0 48 4.1 SSE 15 19 8 10 1026.8 1026.9 0.0
23/06:00pm 10.1 5.5 -1.0 46 4.4 SSE 13 15 7 8 1026.6 1026.7 0.0
23/05:30pm 11.2 5.8 -1.2 42 5.0 SSE 17 22 9 12 1026.2 1026.3 0.0
23/05:00pm 11.9 5.9 -1.9 38 5.4 S 20 28 11 15 1026.2 1026.3 0.0
23/04:30pm 12.3 6.3 -1.2 39 5.5 SSE 20 26 11 14 1025.9 1026.0 0.0
23/04:00pm 12.7 6.7 -1.6 37 5.7 SSE 20 28 11 15 1026.0 1026.1 0.0
23/03:30pm 12.5 6.1 -1.8 37 5.7 SSE 22 30 12 16 1026.1 1026.2 0.0
23/03:00pm 12.5 6.1 -1.4 38 5.6 SSE 22 32 12 17 1025.9 1026.0 0.0
23/02:30pm 12.4 6.0 -1.5 38 5.6 SSE 22 33 12 18 1025.8 1025.9 0.0
23/02:00pm 12.5 6.6 -1.1 39 5.5 SSE 20 28 11 15 1026.0 1026.1 0.0
23/01:30pm 12.1 6.2 -1.1 40 5.3 SSE 20 30 11 16 1026.1 1026.2 0.0
23/01:00pm 12.2 6.0 -0.3 42 5.1 SSE 22 28 12 15 1026.3 1026.4 0.0
23/12:30pm 11.4 4.8 -0.4 44 4.8 SSE 24 32 13 17 1026.9 1027.0 0.0
23/12:00pm 10.9 3.6 0.0 47 4.4 SSE 28 33 15 18 1027.4 1027.5 0.0
23/11:30am 10.6 4.1 0.3 49 4.2 SSE 24 32 13 17 1027.8 1027.9 0.0
23/11:00am 9.7 3.6 0.3 52 3.8 SSE 22 28 12 15 1028.4 1028.5 0.0
23/10:30am 8.6 2.9 0.3 56 3.3 S 20 24 11 13 1028.6 1028.7 0.0
23/10:00am 6.6 1.0 -0.1 62 2.6 S 19 22 10 12 1029.0 1029.1 0.0
23/09:30am 5.3 -0.3 -0.3 67 2.1 SSW 19 20 10 11 1028.7 1028.8 0.0
23/09:00am 4.0 -1.3 -0.4 73 1.6 S 17 20 9 11 1028.5 1028.6 0.0
23/08:30am 2.2 -2.8 -1.4 77 1.3 SSW 15 19 8 10 1028.3 1028.4 0.0
23/08:00am 1.5 -3.9 -1.6 80 1.1 SSW 17 19 9 10 1027.9 1028.0 0.0
23/07:30am 1.1 -4.0 -2.0 80 1.1 SSW 15 17 8 9 1027.8 1027.9 0.0
23/07:00am 1.2 -3.1 -2.0 79 1.1 S 11 13 6 7 1027.4 1027.5 0.0
23/06:30am 1.2 -3.6 -2.2 78 1.2 SSW 13 15 7 8 1027.2 1027.3 0.0
23/06:00am 1.4 -3.4 -2.2 77 1.2 SSW 13 13 7 7 1027.0 1027.1 0.0
23/05:30am 1.3 -3.5 -2.3 77 1.2 SSW 13 15 7 8 1026.6 1026.7 0.0
23/05:00am 1.3 -1.8 -2.5 76 1.3 SW 4 7 2 4 1026.5 1026.6 0.0
23/04:30am 1.8 -1.6 -2.3 74 1.4 WSW 6 7 3 4 1026.6 1026.7 0.0
23/04:00am 2.0 -1.7 -2.7 71 1.6 SSW 7 11 4 6 1026.8 1026.9 0.0
23/03:30am 4.5 -0.5 -1.3 66 2.1 SSE 15 17 8 9 1026.7 1026.8 0.0
23/03:00am 5.3 -0.4 -0.9 64 2.3 SSE 19 20 10 11 1026.6 1026.7 0.0
23/02:30am 5.4 -0.3 -1.1 63 2.4 SSE 19 20 10 11 1026.8 1026.9 0.0
23/02:00am 5.2 -0.5 -1.0 64 2.3 SSE 19 22 10 12 1026.7 1026.8 0.0
23/01:30am 4.8 -1.0 -1.4 64 2.3 SSE 19 20 10 11 1026.5 1026.6 0.0
23/01:00am 4.2 -0.9 -1.6 66 2.1 S 15 17 8 9 1026.7 1026.8 0.0
23/12:30am 4.6 -0.8 -1.4 65 2.2 S 17 19 9 10 1026.8 1026.9 0.0
23/12:00am 3.9 -0.8 -1.7 67 2.0 S 13 17 7 9 1027.0 1027.1 0.0
 
Date/Time
EST
Temp
°C
App
Temp
°C
Dew
Point
°C
Rel
Hum
%
Delta-T
°C
Wind Press
QNH
hPa
Press
MSL
hPa
Rain since
9am
mm
Dir  Spd
km/h
Gust
km/h
Spd
kts
Gust
kts
22/11:30pm 4.2 -0.5 -1.6 66 2.1 S 13 15 7 8 1027.1 1027.2 0.0
22/11:00pm 4.8 0.2 -1.4 64 2.3 SSW 13 15 7 8 1027.1 1027.2 0.0
22/10:30pm 6.0 1.0 -0.9 61 2.6 S 15 17 8 9 1027.0 1027.1 0.0
22/10:00pm 6.5 1.2 -0.9 59 2.8 S 17 19 9 10 1027.0 1027.1 0.0
22/09:30pm 7.2 1.9 -0.7 57 3.1 S 17 20 9 11 1027.0 1027.1 0.0
22/09:00pm 7.1 2.2 -0.6 58 3.0 S 15 17 8 9 1027.0 1027.1 0.0
22/08:30pm 7.3 2.3 -0.9 56 3.2 S 15 17 8 9 1027.0 1027.1 0.0
22/08:00pm 8.5 3.6 -0.3 54 3.5 S 15 17 8 9 1026.9 1027.0 0.0
22/07:30pm 9.4 4.2 -0.2 51 3.9 S 17 20 9 11 1026.8 1026.9 0.0
22/07:00pm 9.9 4.6 -0.6 48 4.2 S 17 22 9 12 1026.8 1026.9 0.0
22/06:30pm 10.3 4.9 -1.4 44 4.6 SSE 17 20 9 11 1026.8 1026.9 0.0
22/06:00pm 11.0 5.2 -1.4 42 4.9 SSE 19 24 10 13 1026.6 1026.7 0.0
22/05:30pm 11.5 5.4 -2.0 39 5.3 SSE 20 26 11 14 1026.5 1026.6 0.0
22/05:00pm 12.0 6.0 -1.2 40 5.3 SSE 20 30 11 16 1026.4 1026.5 0.0
22/04:30pm 12.1 5.8 -1.1 40 5.3 SSE 22 28 12 15 1026.3 1026.4 0.0
22/04:00pm 12.7 6.4 -0.9 39 5.5 SSE 22 28 12 15 1026.2 1026.3 0.0
22/03:30pm 13.0 7.1 -0.6 39 5.6 SSE 20 26 11 14 1026.2 1026.3 0.0
22/03:00pm 12.9 7.1 0.0 41 5.3 SSE 20 26 11 14 1026.4 1026.5 0.0
22/02:30pm 13.0 6.9 0.1 41 5.4 SSE 22 32 12 17 1026.7 1026.8 0.0
22/02:00pm 12.6 6.6 -1.7 37 5.7 SE 20 28 11 15 1026.8 1026.9 0.0
22/01:30pm 12.3 6.4 -0.6 41 5.3 SSE 20 28 11 15 1027.1 1027.2 0.0
22/01:00pm 12.4 7.2 0.2 43 5.1 SE 17 26 9 14 1027.7 1027.8 0.0
22/12:30pm 11.7 6.3 1.1 48 4.5 SE 19 26 10 14 1028.2 1028.3 0.0
22/12:00pm 11.8 6.6 2.3 52 4.1 SE 19 26 10 14 1028.6 1028.7 0.0
22/11:30am 11.1 6.3 2.7 56 3.7 SE 17 22 9 12 1029.3 1029.5 0.0
22/11:00am 10.7 6.3 2.8 58 3.4 SE 15 20 8 11 1029.8 1029.9 0.0
22/10:30am 9.9 5.9 3.0 62 3.0 SSE 13 19 7 10 1030.1 1030.2 0.0
22/10:00am 8.1 4.0 2.1 66 2.5 SSE 13 17 7 9 1029.9 1030.0 0.0
22/09:30am 7.1 2.6 2.0 70 2.1 SSE 15 19 8 10 1029.5 1029.7 0.0
22/09:00am 6.0 1.4 1.5 73 1.8 S 15 17 8 9 1029.3 1029.5 0.0
22/08:30am 4.4 0.0 0.4 75 1.5 S 13 15 7 8 1029.0 1029.1 0.0
22/08:00am 3.8 -1.0 0.5 79 1.3 SSE 15 19 8 10 1028.7 1028.8 0.0
22/07:30am 3.4 -2.1 0.5 81 1.1 SSE 19 20 10 11 1028.4 1028.5 0.0
22/07:00am 3.2 -2.0 0.1 80 1.2 S 17 17 9 9 1028.4 1028.5 0.0
22/06:30am 3.2 -2.1 -0.3 78 1.3 S 17 20 9 11 1028.3 1028.4 0.0
22/06:00am 3.4 -1.9 -0.4 76 1.4 S 17 20 9 11 1028.2 1028.3 0.0
22/05:30am 3.7 -1.6 -0.3 75 1.5 S 17 20 9 11 1028.0 1028.1 0.0
22/05:00am 3.7 -1.2 -0.3 75 1.5 S 15 20 8 11 1027.8 1027.9 0.0
22/04:30am 2.5 -2.5 -1.3 76 1.4 S 15 17 8 9 1027.9 1028.0 0.0
22/04:00am 3.7 -1.3 -0.9 72 1.7 S 15 17 8 9 1028.2 1028.3 0.0
22/03:30am 4.3 -0.2 -0.5 71 1.8 S 13 19 7 10 1028.1 1028.2 0.0
22/03:00am 4.2 -1.1 -0.8 70 1.8 S 17 19 9 10 1028.1 1028.2 0.0
22/02:30am 3.4 -1.6 -1.5 70 1.8 S 15 17 8 9 1028.2 1028.3 0.0
22/02:00am 3.7 -1.3 -1.4 69 1.8 SSW 15 15 8 8 1028.2 1028.3 0.0
22/01:30am 4.3 -0.4 -1.5 66 2.1 S 13 15 7 8 1028.4 1028.5 0.0
22/01:00am 4.6 -0.1 -1.6 64 2.3 S 13 17 7 9 1028.4 1028.5 0.0
22/12:30am 5.8 0.1 -1.1 61 2.6 S 19 20 10 11 1028.2 1028.3 0.0
22/12:00am 5.7 0.7 -1.0 62 2.5 S 15 19 8 10 1028.4 1028.5 0.0
 
Date/Time
EST
Temp
°C
App
Temp
°C
Dew
Point
°C
Rel
Hum
%
Delta-T
°C
Wind Press
QNH
hPa
Press
MSL
hPa
Rain since
9am
mm
Dir  Spd
km/h
Gust
km/h
Spd
kts
Gust
kts
21/11:30pm 6.2 1.2 -1.2 59 2.8 S 15 17 8 9 1028.6 1028.7 0.0

Other formats

Comma delimited format used in spreadsheet applications
http://www.bom.gov.au/fwo/IDN60801/IDN60801.95699.axf

JavaScript Object Notation format (JSON) in row-major order
http://www.bom.gov.au/fwo/IDN60801/IDN60801.95699.json

Data quality

Most of these data are generated automatically and are frequently updated. Quality checks on data are not normally performed. It is possible for incorrect values to appear. Refer to information at About Latest Weather Observations and please check the disclaimer before using these data.